Terminal Aerodrome Forecast
Issued by NWS

Home | Current Version | Previous Version | Text Only | Print | Product List | Glossary On
Versions: 1 2 3 4 5 6 7 8 9 10 11 12 13 14 15
000
FTUS44 KMAF 192300
TAFFST
TAF
KFST 192320Z 2000/2024 32007KT P6SM SKC
     FM201100 17004KT 3SM BR OVC006
     FM201600 18005KT P6SM OVC010
     FM201900 18008KT P6SM SCT200=

USA.gov is the U.S. government's official web portal to all federal, state and local government web resources and services.